Time,TemperatureF,DewpointF,PressureIn,WindDirection,WindDirectionDegrees,WindSpeedMPH,WindSpeedGustMPH,Humidity,HourlyPrecipIn,Conditions,Clouds,dailyrainin,SoftwareType,DateUTC
2013-04-06 00:03:00,45.0,43.0,29.93,WNW,295,0.0,0.0,92,0.00,,,0.04,,2013-04-06 04:03:00,
2013-04-06 00:14:00,45.0,43.0,29.93,WNW,295,0.0,0.0,92,0.00,,,0.04,,2013-04-06 04:14:00,
2013-04-06 00:23:00,45.0,43.0,29.93,WNW,295,0.0,0.0,92,0.00,,,0.04,,2013-04-06 04:23:00,
2013-04-06 00:33:00,44.0,42.0,29.93,WNW,295,0.0,0.0,91,0.00,,,0.04,,2013-04-06 04:33:00,
2013-04-06 00:42:00,44.0,42.0,29.93,WNW,295,0.0,0.0,91,0.00,,,0.04,,2013-04-06 04:42:00,
2013-04-06 00:53:00,44.0,42.0,29.93,WNW,295,0.0,0.0,92,0.00,,,0.04,,2013-04-06 04:53:00,
2013-04-06 01:02:00,44.0,42.0,29.93,WNW,295,0.0,0.0,93,0.00,,,0.02,,2013-04-06 05:02:00,
2013-04-06 01:13:00,44.0,42.0,29.93,WNW,295,0.0,0.0,93,0.00,,,0.02,,2013-04-06 05:13:00,
2013-04-06 01:22:00,43.0,41.0,29.94,WNW,295,0.0,0.0,93,0.00,,,0.02,,2013-04-06 05:22:00,
2013-04-06 01:32:00,43.0,41.0,29.94,WNW,295,0.0,0.0,93,0.00,,,0.02,,2013-04-06 05:32:00,
2013-04-06 01:43:00,43.0,41.0,29.94,WNW,295,0.0,0.0,93,0.00,,,0.02,,2013-04-06 05:43:00,
2013-04-06 01:52:00,42.0,40.0,29.94,WNW,295,0.0,0.0,93,0.00,,,0.02,,2013-04-06 05:52:00,
2013-04-06 02:03:00,42.0,40.0,29.95,WNW,295,0.0,0.0,94,0.00,,,0.01,,2013-04-06 06:03:00,
2013-04-06 02:12:00,42.0,40.0,29.95,WNW,295,0.0,0.0,94,0.00,,,0.01,,2013-04-06 06:12:00,
2013-04-06 02:22:00,42.0,40.0,29.95,WNW,295,0.0,0.0,94,0.00,,,0.01,,2013-04-06 06:22:00,
2013-04-06 02:32:00,42.0,40.0,29.95,WNW,295,0.0,0.0,94,0.00,,,0.01,,2013-04-06 06:32:00,
2013-04-06 02:42:00,42.0,40.0,29.95,WNW,295,0.0,0.0,94,0.00,,,0.01,,2013-04-06 06:42:00,
2013-04-06 02:53:00,41.0,39.0,29.95,WNW,295,0.0,0.0,94,0.00,,,0.01,,2013-04-06 06:53:00,
2013-04-06 03:03:00,41.0,39.0,29.95,WNW,295,0.0,0.0,94,0.00,,,0.00,,2013-04-06 07:03:00,
2013-04-06 03:12:00,41.0,39.0,29.95,WNW,295,0.0,0.0,94,0.00,,,0.00,,2013-04-06 07:12:00,
2013-04-06 03:22:00,41.0,39.0,29.95,WNW,295,0.0,0.0,94,0.00,,,0.00,,2013-04-06 07:22:00,
2013-04-06 03:33:00,41.0,39.0,29.96,WNW,295,0.0,0.0,94,0.00,,,0.00,,2013-04-06 07:33:00,
2013-04-06 03:43:00,41.0,39.0,29.96,WNW,295,0.0,0.0,94,0.00,,,0.00,,2013-04-06 07:43:00,
2013-04-06 03:53:00,41.0,40.0,29.96,WNW,295,0.0,1.0,95,0.00,,,0.00,,2013-04-06 07:53:00,
2013-04-06 04:02:00,40.0,39.0,29.97,WNW,295,0.0,0.0,95,0.00,,,0.00,,2013-04-06 08:02:00,
2013-04-06 04:13:00,40.0,39.0,29.97,WNW,295,0.0,0.0,95,0.00,,,0.00,,2013-04-06 08:13:00,
2013-04-06 04:22:00,41.0,40.0,29.98,WNW,295,0.0,0.0,95,0.00,,,0.00,,2013-04-06 08:22:00,
2013-04-06 04:32:00,41.0,39.0,29.98,North,350,1.0,3.0,94,0.00,,,0.00,,2013-04-06 08:32:00,
2013-04-06 04:42:00,41.0,39.0,29.98,North,350,1.0,3.0,94,0.00,,,0.00,,2013-04-06 08:42:00,
2013-04-06 04:52:00,42.0,39.0,29.99,NW,319,1.0,3.0,89,0.00,,,0.00,,2013-04-06 08:52:00,
2013-04-06 05:02:00,44.0,38.0,30.00,NE,47,0.0,9.0,80,0.00,,,0.00,,2013-04-06 09:02:00,
2013-04-06 05:12:00,44.0,38.0,30.00,NE,47,0.0,9.0,80,0.00,,,0.00,,2013-04-06 09:12:00,
2013-04-06 05:22:00,46.0,36.0,30.00,ENE,58,2.0,9.0,69,0.00,,,0.00,,2013-04-06 09:22:00,
2013-04-06 05:33:00,47.0,34.0,30.01,NE,45,3.0,14.0,61,0.00,,,0.00,,2013-04-06 09:33:00,
2013-04-06 05:43:00,47.0,34.0,30.01,NE,45,3.0,14.0,61,0.00,,,0.00,,2013-04-06 09:43:00,
2013-04-06 05:53:00,48.0,34.0,30.01,ENE,60,3.0,10.0,57,0.00,,,0.00,,2013-04-06 09:53:00,
2013-04-06 06:03:00,48.0,33.0,30.03,ENE,64,2.0,12.0,55,0.00,,,0.00,,2013-04-06 10:03:00,
2013-04-06 06:13:00,48.0,33.0,30.03,ENE,64,2.0,12.0,55,0.00,,,0.00,,2013-04-06 10:13:00,
2013-04-06 06:23:00,48.0,33.0,30.03,NNE,18,2.0,7.0,56,0.00,,,0.00,,2013-04-06 10:23:00,
2013-04-06 06:33:00,47.0,32.0,30.03,NNE,29,0.0,9.0,55,0.00,,,0.00,,2013-04-06 10:33:00,
2013-04-06 06:42:00,47.0,32.0,30.03,NNE,29,0.0,9.0,55,0.00,,,0.00,,2013-04-06 10:42:00,
2013-04-06 06:53:00,47.0,32.0,30.04,East,79,1.0,7.0,56,0.00,,,0.00,,2013-04-06 10:53:00,
2013-04-06 07:03:00,47.0,33.0,30.05,NE,47,1.0,6.0,57,0.00,,,0.00,,2013-04-06 11:03:00,
2013-04-06 07:12:00,47.0,33.0,30.05,NE,47,1.0,6.0,57,0.00,,,0.00,,2013-04-06 11:12:00,
2013-04-06 07:23:00,46.0,32.0,30.06,NNE,28,0.0,7.0,58,0.00,,,0.00,,2013-04-06 11:23:00,
2013-04-06 07:33:00,46.0,32.0,30.07,ENE,61,2.0,6.0,57,0.00,,,0.00,,2013-04-06 11:33:00,
2013-04-06 07:43:00,46.0,32.0,30.07,ENE,61,2.0,6.0,57,0.00,,,0.00,,2013-04-06 11:43:00,
2013-04-06 07:53:00,46.0,32.0,30.08,NE,37,0.0,6.0,57,0.00,,,0.00,,2013-04-06 11:53:00,
2013-04-06 08:02:00,47.0,32.0,30.09,ESE,106,0.0,7.0,56,0.00,,,0.00,,2013-04-06 12:02:00,
2013-04-06 08:13:00,47.0,32.0,30.09,ESE,106,0.0,7.0,56,0.00,,,0.00,,2013-04-06 12:13:00,
2013-04-06 08:22:00,47.0,30.0,30.09,NE,56,3.0,8.0,51,0.00,,,0.00,,2013-04-06 12:22:00,
2013-04-06 08:33:00,48.0,32.0,30.11,ENE,65,0.0,10.0,53,0.00,,,0.00,,2013-04-06 12:33:00,
2013-04-06 08:43:00,48.0,32.0,30.11,ENE,65,0.0,10.0,53,0.00,,,0.00,,2013-04-06 12:43:00,
2013-04-06 08:53:00,49.0,32.0,30.11,ENE,66,0.0,12.0,51,0.00,,,0.00,,2013-04-06 12:53:00,
2013-04-06 09:03:00,50.0,30.0,30.12,ENE,72,7.0,13.0,46,0.00,,,0.00,,2013-04-06 13:03:00,
2013-04-06 09:13:00,50.0,30.0,30.12,ENE,72,7.0,13.0,46,0.00,,,0.00,,2013-04-06 13:13:00,
2013-04-06 09:24:00,51.0,31.0,30.12,ESE,108,0.0,9.0,46,0.00,,,0.00,,2013-04-06 13:24:00,
2013-04-06 09:32:00,52.0,28.0,30.13,North,353,0.0,12.0,40,0.00,,,0.00,,2013-04-06 13:32:00,
2013-04-06 09:43:00,52.0,28.0,30.13,North,353,0.0,12.0,40,0.00,,,0.00,,2013-04-06 13:43:00,
2013-04-06 09:54:00,53.0,25.0,30.14,North,10,1.0,12.0,33,0.00,,,0.00,,2013-04-06 13:54:00,
2013-04-06 10:04:00,55.0,24.0,30.14,ENE,73,2.0,12.0,30,0.00,,,0.00,,2013-04-06 14:04:00,
2013-04-06 10:12:00,55.0,24.0,30.14,ENE,73,2.0,12.0,30,0.00,,,0.00,,2013-04-06 14:12:00,
2013-04-06 10:22:00,55.0,23.0,30.14,ENE,58,3.0,11.0,29,0.00,,,0.00,,2013-04-06 14:22:00,
2013-04-06 10:33:00,56.0,24.0,30.15,East,81,1.0,12.0,29,0.00,,,0.00,,2013-04-06 14:33:00,
2013-04-06 10:43:00,56.0,24.0,30.15,East,81,1.0,12.0,29,0.00,,,0.00,,2013-04-06 14:43:00,
2013-04-06 10:53:00,57.0,24.0,30.16,NW,312,1.0,12.0,28,0.00,,,0.00,,2013-04-06 14:53:00,
2013-04-06 11:02:00,56.0,23.0,30.17,North,352,3.0,12.0,28,0.00,,,0.00,,2013-04-06 15:02:00,
2013-04-06 11:12:00,56.0,23.0,30.17,North,352,3.0,12.0,28,0.00,,,0.00,,2013-04-06 15:12:00,
2013-04-06 11:23:00,57.0,24.0,30.17,ENE,62,0.0,12.0,28,0.00,,,0.00,,2013-04-06 15:23:00,
2013-04-06 11:33:00,58.0,25.0,30.17,ENE,60,1.0,6.0,28,0.00,,,0.00,,2013-04-06 15:33:00,
2013-04-06 11:43:00,58.0,25.0,30.17,ENE,60,1.0,6.0,28,0.00,,,0.00,,2013-04-06 15:43:00,
2013-04-06 11:53:00,58.0,27.0,30.17,East,91,2.0,7.0,30,0.00,,,0.00,,2013-04-06 15:53:00,
2013-04-06 12:05:00,58.0,25.0,30.17,East,99,0.0,15.0,28,0.00,,,0.00,,2013-04-06 16:05:00,
2013-04-06 12:17:00,58.0,25.0,30.17,East,99,0.0,15.0,28,0.00,,,0.00,,2013-04-06 16:17:00,
2013-04-06 12:23:00,59.0,25.0,30.17,NE,56,2.0,9.0,27,0.00,,,0.00,,2013-04-06 16:23:00,
2013-04-06 12:33:00,60.0,26.0,30.16,East,94,1.0,7.0,27,0.00,,,0.00,,2013-04-06 16:33:00,
2013-04-06 12:42:00,60.0,26.0,30.16,East,94,1.0,7.0,27,0.00,,,0.00,,2013-04-06 16:42:00,
2013-04-06 12:53:00,60.0,26.0,30.17,SE,129,0.0,9.0,27,0.00,,,0.00,,2013-04-06 16:53:00,
2013-04-06 13:03:00,61.0,26.0,30.17,ENE,76,4.0,7.0,26,0.00,,,0.00,,2013-04-06 17:03:00,
2013-04-06 13:12:00,61.0,26.0,30.17,ENE,76,4.0,7.0,26,0.00,,,0.00,,2013-04-06 17:12:00,
2013-04-06 13:22:00,62.0,28.0,30.17,NNW,327,3.0,7.0,27,0.00,,,0.00,,2013-04-06 17:22:00,
2013-04-06 13:33:00,62.0,29.0,30.17,North,360,1.0,9.0,29,0.00,,,0.00,,2013-04-06 17:33:00,
2013-04-06 13:42:00,62.0,29.0,30.17,North,360,1.0,9.0,29,0.00,,,0.00,,2013-04-06 17:42:00,
2013-04-06 13:52:00,62.0,29.0,30.17,East,95,0.0,7.0,29,0.00,,,0.00,,2013-04-06 17:52:00,
2013-04-06 14:03:00,63.0,29.0,30.16,NNW,343,0.0,9.0,28,0.00,,,0.00,,2013-04-06 18:03:00,
2013-04-06 14:12:00,63.0,29.0,30.16,NNW,343,0.0,9.0,28,0.00,,,0.00,,2013-04-06 18:12:00,
2013-04-06 14:23:00,64.0,33.0,30.15,ENE,71,2.0,7.0,31,0.00,,,0.00,,2013-04-06 18:23:00,
2013-04-06 14:32:00,64.0,29.0,30.15,East,98,2.0,9.0,27,0.00,,,0.00,,2013-04-06 18:32:00,
2013-04-06 14:42:00,64.0,29.0,30.15,East,98,2.0,9.0,27,0.00,,,0.00,,2013-04-06 18:42:00,
2013-04-06 14:52:00,63.0,29.0,30.15,ENE,64,2.0,10.0,27,0.00,,,0.00,,2013-04-06 18:52:00,
2013-04-06 15:03:00,64.0,27.0,30.14,East,83,0.0,5.0,25,0.00,,,0.00,,2013-04-06 19:03:00,
2013-04-06 15:12:00,64.0,27.0,30.14,East,83,0.0,5.0,25,0.00,,,0.00,,2013-04-06 19:12:00,
2013-04-06 15:23:00,64.0,31.0,30.14,North,349,0.0,3.0,29,0.00,,,0.00,,2013-04-06 19:23:00,
2013-04-06 15:33:00,64.0,29.0,30.14,ENE,62,0.0,5.0,27,0.00,,,0.00,,2013-04-06 19:33:00,
2013-04-06 15:42:00,64.0,29.0,30.14,ENE,62,0.0,5.0,27,0.00,,,0.00,,2013-04-06 19:42:00,
2013-04-06 15:54:00,65.0,29.0,30.13,ENE,70,3.0,6.0,26,0.00,,,0.00,,2013-04-06 19:54:00,
2013-04-06 16:03:00,65.0,28.0,30.13,ENE,72,4.0,6.0,25,0.00,,,0.00,,2013-04-06 20:03:00,
2013-04-06 16:12:00,65.0,28.0,30.13,ENE,72,4.0,6.0,25,0.00,,,0.00,,2013-04-06 20:12:00,
2013-04-06 16:23:00,65.0,28.0,30.12,SSW,203,1.0,4.0,25,0.00,,,0.00,,2013-04-06 20:23:00,
2013-04-06 16:32:00,65.0,30.0,30.12,SSE,156,3.0,6.0,27,0.00,,,0.00,,2013-04-06 20:32:00,
2013-04-06 16:42:00,65.0,30.0,30.12,SSE,156,3.0,6.0,27,0.00,,,0.00,,2013-04-06 20:42:00,
2013-04-06 16:53:00,65.0,30.0,30.11,SSW,199,0.0,3.0,27,0.00,,,0.00,,2013-04-06 20:53:00,
2013-04-06 17:02:00,65.0,30.0,30.11,SSW,212,2.0,5.0,27,0.00,,,0.00,,2013-04-06 21:02:00,
2013-04-06 17:13:00,65.0,30.0,30.11,SSE,148,0.0,7.0,27,0.00,,,0.00,,2013-04-06 21:13:00,
2013-04-06 17:22:00,65.0,30.0,30.11,SSE,148,0.0,7.0,27,0.00,,,0.00,,2013-04-06 21:22:00,
2013-04-06 17:33:00,65.0,30.0,30.11,ENE,64,0.0,5.0,27,0.00,,,0.00,,2013-04-06 21:33:00,
2013-04-06 17:43:00,65.0,30.0,30.11,ENE,64,0.0,5.0,27,0.00,,,0.00,,2013-04-06 21:43:00,
2013-04-06 17:53:00,65.0,30.0,30.11,SE,144,0.0,7.0,27,0.00,,,0.00,,2013-04-06 21:53:00,
2013-04-06 18:03:00,64.0,29.0,30.11,SE,126,0.0,3.0,27,0.00,,,0.00,,2013-04-06 22:03:00,
2013-04-06 18:13:00,64.0,29.0,30.11,SE,126,0.0,3.0,27,0.00,,,0.00,,2013-04-06 22:13:00,
2013-04-06 18:23:00,64.0,30.0,30.11,SSE,165,0.0,6.0,28,0.00,,,0.00,,2013-04-06 22:23:00,
2013-04-06 18:34:00,63.0,29.0,30.12,East,96,1.0,3.0,27,0.00,,,0.00,,2013-04-06 22:34:00,
2013-04-06 18:43:00,63.0,29.0,30.12,East,96,1.0,3.0,27,0.00,,,0.00,,2013-04-06 22:43:00,
2013-04-06 18:54:00,63.0,29.0,30.12,SE,125,0.0,6.0,28,0.00,,,0.00,,2013-04-06 22:54:00,
2013-04-06 19:03:00,61.0,31.0,30.12,SE,138,0.0,1.0,32,0.00,,,0.00,,2013-04-06 23:03:00,
2013-04-06 19:14:00,61.0,31.0,30.12,SE,138,0.0,1.0,32,0.00,,,0.00,,2013-04-06 23:14:00,
2013-04-06 19:23:00,60.0,32.0,30.12,East,99,0.0,1.0,34,0.00,,,0.00,,2013-04-06 23:23:00,
2013-04-06 19:34:00,59.0,31.0,30.13,ESE,114,0.0,1.0,35,0.00,,,0.00,,2013-04-06 23:34:00,
2013-04-06 19:43:00,59.0,31.0,30.13,ESE,114,0.0,1.0,35,0.00,,,0.00,,2013-04-06 23:43:00,
2013-04-06 19:53:00,59.0,32.0,30.13,ESE,114,0.0,0.0,36,0.00,,,0.00,,2013-04-06 23:53:00,
2013-04-06 20:02:00,58.0,33.0,30.14,ESE,114,0.0,0.0,39,0.00,,,0.00,,2013-04-07 00:02:00,
2013-04-06 20:13:00,58.0,33.0,30.14,ESE,114,0.0,0.0,39,0.00,,,0.00,,2013-04-07 00:13:00,
2013-04-06 20:22:00,57.0,33.0,30.14,ESE,114,0.0,0.0,40,0.00,,,0.00,,2013-04-07 00:22:00,
2013-04-06 20:33:00,55.0,33.0,30.14,ESE,114,0.0,0.0,44,0.00,,,0.00,,2013-04-07 00:33:00,
2013-04-06 20:43:00,55.0,33.0,30.14,ESE,114,0.0,0.0,44,0.00,,,0.00,,2013-04-07 00:43:00,
2013-04-06 20:53:00,54.0,34.0,30.14,ESE,114,0.0,0.0,46,0.00,,,0.00,,2013-04-07 00:53:00,
2013-04-06 21:02:00,54.0,35.0,30.15,ESE,114,0.0,0.0,49,0.00,,,0.00,,2013-04-07 01:02:00,
2013-04-06 21:12:00,54.0,35.0,30.15,ESE,114,0.0,0.0,49,0.00,,,0.00,,2013-04-07 01:12:00,
2013-04-06 21:23:00,53.0,35.0,30.15,ESE,114,0.0,0.0,51,0.00,,,0.00,,2013-04-07 01:23:00,
2013-04-06 21:33:00,53.0,36.0,30.15,ESE,114,0.0,0.0,53,0.00,,,0.00,,2013-04-07 01:33:00,
2013-04-06 21:43:00,53.0,36.0,30.15,ESE,114,0.0,0.0,53,0.00,,,0.00,,2013-04-07 01:43:00,
2013-04-06 21:53:00,52.0,37.0,30.16,ESE,114,0.0,0.0,56,0.00,,,0.00,,2013-04-07 01:53:00,
2013-04-06 22:03:00,51.0,35.0,30.16,ESE,104,0.0,5.0,55,0.00,,,0.00,,2013-04-07 02:03:00,
2013-04-06 22:12:00,51.0,35.0,30.16,ESE,104,0.0,5.0,55,0.00,,,0.00,,2013-04-07 02:12:00,
2013-04-06 22:23:00,53.0,37.0,30.17,ESE,120,1.0,3.0,54,0.00,,,0.00,,2013-04-07 02:23:00,
2013-04-06 22:33:00,53.0,37.0,30.18,SSE,153,0.0,4.0,55,0.00,,,0.00,,2013-04-07 02:33:00,
2013-04-06 22:43:00,53.0,37.0,30.18,SSE,153,0.0,4.0,55,0.00,,,0.00,,2013-04-07 02:43:00,
2013-04-06 22:52:00,52.0,38.0,30.18,SSE,147,2.0,5.0,58,0.00,,,0.00,,2013-04-07 02:52:00,
2013-04-06 23:02:00,52.0,39.0,30.19,East,91,0.0,7.0,60,0.00,,,0.00,,2013-04-07 03:02:00,
2013-04-06 23:12:00,52.0,39.0,30.19,East,91,0.0,7.0,60,0.00,,,0.00,,2013-04-07 03:12:00,
2013-04-06 23:22:00,51.0,38.0,30.19,SE,136,0.0,7.0,60,0.00,,,0.00,,2013-04-07 03:22:00,
2013-04-06 23:35:00,51.0,38.0,30.20,South,180,2.0,6.0,61,0.00,,,0.00,,2013-04-07 03:35:00,
2013-04-06 23:44:00,51.0,38.0,30.20,South,180,2.0,6.0,61,0.00,,,0.00,,2013-04-07 03:44:00,
2013-04-06 23:55:00,51.0,37.0,30.20,SSE,155,3.0,10.0,59,0.00,,,0.00,,2013-04-07 03:55:00,